createdAt,value
2023-05-04T00:02:17.081Z,6.47
2023-05-04T00:04:46.355Z,6.53
2023-05-04T00:07:16.635Z,5.60
2023-05-04T00:09:44.531Z,5.27
2023-05-04T00:12:12.346Z,7.43
2023-05-04T00:14:40.172Z,6.57
2023-05-04T00:17:08.150Z,6.10
2023-05-04T00:19:37.264Z,6.43
2023-05-04T00:22:06.469Z,6.33
2023-05-04T00:24:34.395Z,6.90
2023-05-04T00:27:02.295Z,6.60
2023-05-04T00:29:32.917Z,6.63
2023-05-04T00:32:01.568Z,6.20
2023-05-04T00:34:30.649Z,6.27
2023-05-04T00:36:59.175Z,7.13
2023-05-04T00:39:28.434Z,5.97
2023-05-04T00:41:56.586Z,6.00
2023-05-04T00:44:24.529Z,8.20
2023-05-04T00:46:53.514Z,9.17
2023-05-04T00:49:25.177Z,7.77
2023-05-04T00:51:55.684Z,7.13
2023-05-04T00:54:24.462Z,9.10
2023-05-04T00:56:54.538Z,6.27
2023-05-04T00:59:22.429Z,6.57
2023-05-04T01:01:53.336Z,7.07
2023-05-04T01:04:21.640Z,7.70
2023-05-04T01:06:53.834Z,7.67
2023-05-04T01:09:31.090Z,5.73
2023-05-04T01:12:07.140Z,4.77
2023-05-04T01:14:35.594Z,6.67
2023-05-04T01:17:06.165Z,6.03
2023-05-04T01:19:36.547Z,4.63
2023-05-04T01:22:07.106Z,6.03
2023-05-04T01:24:35.039Z,4.77
2023-05-04T01:27:06.645Z,5.37
2023-05-04T01:29:40.606Z,6.57
2023-05-04T01:32:12.717Z,4.70
2023-05-04T01:34:42.201Z,4.83
2023-05-04T01:37:11.696Z,6.93
2023-05-04T01:39:39.731Z,9.33
2023-05-04T01:42:08.244Z,5.40
2023-05-04T01:44:36.082Z,6.10
2023-05-04T01:47:06.095Z,4.97
2023-05-04T01:49:33.933Z,6.33
2023-05-04T01:52:01.813Z,5.13
2023-05-04T01:54:31.014Z,6.77
2023-05-04T01:56:58.877Z,7.97
2023-05-04T01:59:30.305Z,6.47
2023-05-04T02:01:58.150Z,6.23
2023-05-04T02:04:27.275Z,4.70
2023-05-04T02:06:55.127Z,5.90
2023-05-04T02:09:23.017Z,8.40
2023-05-04T02:11:52.430Z,6.73
2023-05-04T02:14:20.897Z,6.60
2023-05-04T02:16:48.836Z,7.50
2023-05-04T02:19:16.758Z,4.80
2023-05-04T02:21:44.691Z,6.13
2023-05-04T02:24:12.759Z,6.93
2023-05-04T02:26:40.599Z,8.67
2023-05-04T02:29:09.720Z,4.73
2023-05-04T02:31:37.776Z,6.33
2023-05-04T02:34:08.141Z,4.63
2023-05-04T02:36:42.376Z,6.60
2023-05-04T02:39:10.234Z,7.80
2023-05-04T02:41:38.102Z,5.47
2023-05-04T02:44:06.319Z,8.03
2023-05-04T02:46:35.588Z,6.97
2023-05-04T02:49:03.388Z,4.80
2023-05-04T02:51:31.260Z,6.50
2023-05-04T02:53:59.098Z,5.30
2023-05-04T02:56:26.880Z,7.40
2023-05-04T02:58:54.686Z,6.93
2023-05-04T03:01:22.517Z,7.33
2023-05-04T03:03:51.807Z,9.50
2023-05-04T03:06:19.609Z,8.43
2023-05-04T03:08:47.464Z,7.27
2023-05-04T03:11:15.342Z,5.63
2023-05-04T03:13:43.378Z,5.83
2023-05-04T03:16:12.232Z,5.20
2023-05-04T03:18:40.078Z,5.00
2023-05-04T03:21:09.341Z,5.80
2023-05-04T03:23:37.839Z,5.77
2023-05-04T03:26:05.944Z,7.77
2023-05-04T03:28:34.025Z,9.53
2023-05-04T03:31:01.921Z,7.37
2023-05-04T03:33:30.780Z,7.40
2023-05-04T03:35:58.651Z,6.60
2023-05-04T03:38:27.898Z,9.37
2023-05-04T03:40:56.428Z,8.53
2023-05-04T03:43:24.604Z,7.47
2023-05-04T03:45:53.713Z,9.77
2023-05-04T03:48:21.499Z,6.30
2023-05-04T03:50:49.517Z,7.80
2023-05-04T03:53:17.377Z,8.10
2023-05-04T03:55:46.539Z,8.47
2023-05-04T03:58:14.393Z,8.13
2023-05-04T04:00:42.572Z,8.10
2023-05-04T04:03:15.727Z,10.30
2023-05-04T04:05:43.782Z,7.70
2023-05-04T04:08:12.576Z,5.33
2023-05-04T04:10:40.853Z,7.10
2023-05-04T04:13:10.207Z,8.87
2023-05-04T04:15:38.087Z,6.93
2023-05-04T04:18:06.005Z,7.57
2023-05-04T04:20:33.976Z,8.87
2023-05-04T04:23:01.823Z,7.80
2023-05-04T04:25:29.626Z,7.70
2023-05-04T04:27:57.694Z,7.00
2023-05-04T04:30:27.125Z,6.80
2023-05-04T04:32:57.549Z,6.00
2023-05-04T04:35:25.437Z,7.33
2023-05-04T04:37:53.265Z,10.52
2023-05-04T04:40:22.476Z,7.97
2023-05-04T04:42:50.599Z,10.00
2023-05-04T04:45:18.876Z,8.10
2023-05-04T04:47:50.117Z,8.52
2023-05-04T04:50:18.226Z,6.40
2023-05-04T04:52:46.377Z,8.27
2023-05-04T04:55:15.565Z,7.83
2023-05-04T04:57:43.549Z,7.05
2023-05-04T05:00:14.102Z,8.52
2023-05-04T05:02:42.435Z,7.77
2023-05-04T05:05:12.901Z,11.03
2023-05-04T05:07:42.988Z,10.77
2023-05-04T05:10:12.498Z,9.07
2023-05-04T05:12:40.471Z,9.73
2023-05-04T05:15:09.362Z,8.07
2023-05-04T05:17:38.101Z,8.00
2023-05-04T05:20:11.230Z,8.20
2023-05-04T05:22:40.460Z,6.70
2023-05-04T05:25:09.260Z,7.87
2023-05-04T05:27:37.669Z,9.53
2023-05-04T05:30:07.137Z,9.27
2023-05-04T05:32:35.214Z,12.27
2023-05-04T05:35:03.088Z,11.40
2023-05-04T05:37:31.483Z,10.23
2023-05-04T05:40:00.777Z,10.27
2023-05-04T05:42:30.195Z,6.53
2023-05-04T05:44:57.968Z,8.93
2023-05-04T05:47:25.787Z,9.30
2023-05-04T05:49:54.368Z,8.50
2023-05-04T05:52:22.117Z,10.73
2023-05-04T05:54:49.977Z,11.50
2023-05-04T05:57:20.673Z,14.30
2023-05-04T05:59:48.763Z,7.43
2023-05-04T06:02:16.483Z,9.77
2023-05-04T06:04:45.420Z,8.07
2023-05-04T06:07:14.535Z,8.37
2023-05-04T06:09:42.369Z,9.93
2023-05-04T06:12:15.041Z,9.90
2023-05-04T06:14:44.250Z,9.33
2023-05-04T06:17:12.078Z,8.27
2023-05-04T06:19:39.933Z,9.00
2023-05-04T06:22:08.417Z,10.07
2023-05-04T06:24:36.152Z,9.70
2023-05-04T06:27:04.344Z,10.17
2023-05-04T06:29:32.206Z,11.13
2023-05-04T06:32:03.548Z,12.07
2023-05-04T06:34:31.358Z,10.00
2023-05-04T06:37:01.402Z,8.90
2023-05-04T06:39:29.164Z,11.30
2023-05-04T06:41:57.092Z,10.73
2023-05-04T06:44:29.584Z,11.53
2023-05-04T06:46:57.325Z,14.40
2023-05-04T06:49:26.485Z,11.20
2023-05-04T06:51:54.579Z,11.27
2023-05-04T06:54:22.382Z,12.80
2023-05-04T06:56:50.734Z,11.00
2023-05-04T06:59:20.363Z,11.43
2023-05-04T07:01:48.291Z,8.43
2023-05-04T07:04:17.209Z,9.83
2023-05-04T07:06:46.616Z,9.00
2023-05-04T07:09:14.395Z,12.27
2023-05-04T07:11:42.217Z,9.87
2023-05-04T07:14:10.568Z,11.83
2023-05-04T07:16:38.723Z,11.70
2023-05-04T07:19:06.961Z,10.77
2023-05-04T07:21:34.754Z,11.10
2023-05-04T07:24:04.429Z,9.27
2023-05-04T07:26:32.178Z,9.90
2023-05-04T07:29:00.129Z,8.60
2023-05-04T07:31:30.199Z,9.53
2023-05-04T07:33:58.500Z,11.77
2023-05-04T07:36:27.776Z,10.17
2023-05-04T07:38:55.637Z,8.43
2023-05-04T07:41:24.812Z,11.30
2023-05-04T07:43:52.713Z,9.57
2023-05-04T07:46:20.620Z,9.80
2023-05-04T07:48:49.288Z,9.73
2023-05-04T07:51:17.262Z,7.50
2023-05-04T07:53:45.169Z,9.83
2023-05-04T07:56:13.894Z,9.07
2023-05-04T07:58:43.154Z,9.23
2023-05-04T08:01:11.034Z,9.23
2023-05-04T08:03:38.825Z,8.70
2023-05-04T08:06:08.749Z,7.28
2023-05-04T08:08:36.655Z,7.65
2023-05-04T08:11:19.390Z,7.70
2023-05-04T08:13:50.703Z,7.00
2023-05-04T08:16:18.581Z,5.90
2023-05-04T08:18:46.480Z,7.18
2023-05-04T08:21:14.650Z,6.18
2023-05-04T08:23:42.571Z,7.40
2023-05-04T08:26:10.757Z,7.50
2023-05-04T08:28:41.684Z,6.30
2023-05-04T08:31:11.017Z,6.45
2023-05-04T08:33:41.417Z,8.20
2023-05-04T08:36:09.949Z,6.60
2023-05-04T08:38:37.918Z,6.95
2023-05-04T08:41:06.275Z,6.25
2023-05-04T08:43:36.297Z,6.60
2023-05-04T08:46:05.197Z,6.78
2023-05-04T08:48:35.109Z,7.00
2023-05-04T08:51:04.444Z,6.28
2023-05-04T08:53:33.707Z,6.20
2023-05-04T08:56:04.656Z,5.35
2023-05-04T08:58:37.674Z,7.22
2023-05-04T09:01:07.776Z,5.25
2023-05-04T09:03:40.534Z,6.43
2023-05-04T09:06:09.435Z,6.13
2023-05-04T09:08:37.360Z,5.03
2023-05-04T09:11:05.347Z,4.70
2023-05-04T09:13:33.992Z,5.25
2023-05-04T09:16:03.825Z,4.93
2023-05-04T09:18:41.118Z,5.93
2023-05-04T09:21:09.444Z,4.30
2023-05-04T09:23:47.702Z,5.47
2023-05-04T09:26:15.690Z,3.40
2023-05-04T09:28:43.762Z,4.10
2023-05-04T09:31:12.196Z,3.92
2023-05-04T09:33:41.625Z,3.60
2023-05-04T09:36:16.481Z,4.43
2023-05-04T09:38:44.601Z,4.95
2023-05-04T09:41:12.637Z,4.10
2023-05-04T09:43:41.778Z,4.20
2023-05-04T09:46:18.070Z,3.97
2023-05-04T09:48:54.164Z,4.03
2023-05-04T09:51:26.557Z,4.55
2023-05-04T09:53:54.861Z,4.28
2023-05-04T09:56:33.650Z,6.85
2023-05-04T09:59:01.504Z,3.97
2023-05-04T10:01:30.451Z,4.22
2023-05-04T10:04:02.968Z,3.80
2023-05-04T10:06:31.352Z,6.30
2023-05-04T10:09:00.531Z,4.63
2023-05-04T10:11:31.677Z,5.53
2023-05-04T10:13:59.542Z,4.22
2023-05-04T10:16:38.027Z,4.30
2023-05-04T10:19:33.492Z,7.45
2023-05-04T10:22:14.738Z,4.78
2023-05-04T10:25:22.483Z,4.30
2023-05-04T10:28:02.288Z,3.85
2023-05-04T10:30:30.817Z,3.83
2023-05-04T10:33:00.388Z,4.10
2023-05-04T10:35:29.732Z,5.38
2023-05-04T10:37:58.104Z,3.58
2023-05-04T10:40:41.346Z,3.30
2023-05-04T10:43:11.320Z,3.78
2023-05-04T10:45:39.746Z,3.72
2023-05-04T10:48:08.398Z,2.95
2023-05-04T10:50:44.746Z,3.80
2023-05-04T10:53:13.048Z,3.33
2023-05-04T10:55:42.587Z,2.97
2023-05-04T10:58:14.717Z,3.28
2023-05-04T11:00:47.399Z,3.40
2023-05-04T11:03:15.813Z,3.72
2023-05-04T11:05:46.423Z,2.92
2023-05-04T11:08:21.669Z,4.40
2023-05-04T11:10:50.967Z,3.72
2023-05-04T11:13:19.325Z,3.58
2023-05-04T11:15:48.364Z,2.47
2023-05-04T11:18:27.465Z,3.58
2023-05-04T11:20:59.852Z,4.00
2023-05-04T11:23:28.287Z,3.40
2023-05-04T11:25:56.404Z,3.45
2023-05-04T11:28:33.103Z,3.38
2023-05-04T11:31:01.033Z,3.83
2023-05-04T11:33:30.320Z,4.85
2023-05-04T11:36:05.676Z,6.13
2023-05-04T11:38:33.602Z,3.25
2023-05-04T11:41:02.595Z,3.22
2023-05-04T11:43:31.664Z,3.90
2023-05-04T11:46:01.389Z,3.35
2023-05-04T11:48:30.063Z,4.95
2023-05-04T11:50:58.284Z,4.20
2023-05-04T11:53:28.934Z,4.75
2023-05-04T11:56:03.294Z,3.13
2023-05-04T11:58:31.120Z,4.53
2023-05-04T12:00:59.891Z,3.40
2023-05-04T12:03:39.865Z,4.20
2023-05-04T12:06:16.412Z,3.17
2023-05-04T12:08:45.651Z,4.00
2023-05-04T12:11:14.609Z,2.90
2023-05-04T12:13:43.490Z,4.13
2023-05-04T12:16:12.753Z,3.65
2023-05-04T12:18:41.489Z,4.68
2023-05-04T12:21:10.924Z,3.85
2023-05-04T12:23:39.306Z,3.10
2023-05-04T12:26:08.828Z,3.90
2023-05-04T12:28:37.237Z,5.32
2023-05-04T12:31:07.852Z,3.55
2023-05-04T12:33:36.393Z,4.78
2023-05-04T12:36:05.910Z,4.57
2023-05-04T12:38:34.458Z,5.45
2023-05-04T12:41:04.297Z,3.97
2023-05-04T12:43:33.763Z,3.47
2023-05-04T12:46:01.566Z,3.40
2023-05-04T12:48:31.932Z,3.75
2023-05-04T12:51:00.510Z,3.45
2023-05-04T12:53:30.004Z,4.18
2023-05-04T12:55:58.123Z,4.38
2023-05-04T12:58:25.946Z,4.20
2023-05-04T13:00:56.045Z,3.95
2023-05-04T13:03:23.950Z,4.25
2023-05-04T13:05:51.987Z,3.50
2023-05-04T13:08:19.975Z,4.10
2023-05-04T13:10:48.108Z,5.15
2023-05-04T13:13:18.062Z,4.18
2023-05-04T13:15:46.290Z,4.35
2023-05-04T13:18:15.365Z,4.82
2023-05-04T13:20:45.135Z,3.75
2023-05-04T13:23:13.942Z,4.43
2023-05-04T13:25:42.182Z,4.47
2023-05-04T13:28:09.957Z,4.45
2023-05-04T13:30:37.800Z,5.25
2023-05-04T13:33:16.699Z,4.30
2023-05-04T13:35:50.741Z,4.78
2023-05-04T13:38:18.931Z,4.50
2023-05-04T13:40:46.949Z,4.03
2023-05-04T13:43:19.968Z,4.22
2023-05-04T13:45:49.328Z,6.18
2023-05-04T13:48:19.287Z,4.25
2023-05-04T13:50:47.134Z,4.80
2023-05-04T13:53:16.502Z,6.35
2023-05-04T13:55:45.268Z,5.70
2023-05-04T13:58:13.135Z,4.68
2023-05-04T14:00:41.043Z,5.65
2023-05-04T14:03:09.004Z,4.78
2023-05-04T14:05:36.915Z,4.07
2023-05-04T14:08:05.147Z,5.30
2023-05-04T14:10:36.654Z,5.03
2023-05-04T14:13:05.618Z,6.15
2023-05-04T14:15:36.540Z,7.78
2023-05-04T14:18:04.561Z,5.95
2023-05-04T14:20:32.983Z,5.63
2023-05-04T14:23:00.906Z,4.38
2023-05-04T14:25:28.734Z,4.55
2023-05-04T14:27:57.953Z,4.45
2023-05-04T14:30:26.580Z,4.15
2023-05-04T14:32:56.131Z,5.30
2023-05-04T14:35:24.090Z,5.13
2023-05-04T14:37:51.931Z,3.78
2023-05-04T14:40:19.822Z,3.97
2023-05-04T14:42:47.871Z,4.25
2023-05-04T14:45:17.328Z,4.93
2023-05-04T14:47:45.502Z,5.28
2023-05-04T14:50:13.741Z,5.03
2023-05-04T14:52:41.618Z,4.13
2023-05-04T14:55:10.343Z,4.22
2023-05-04T14:57:38.143Z,3.60
2023-05-04T15:00:08.880Z,6.97
2023-05-04T15:02:39.373Z,4.63
2023-05-04T15:05:09.814Z,4.60
2023-05-04T15:07:37.627Z,5.78
2023-05-04T15:10:07.524Z,4.28
2023-05-04T15:12:36.114Z,4.35
2023-05-04T15:15:04.772Z,7.28
2023-05-04T15:17:35.207Z,5.45
2023-05-04T15:20:08.310Z,4.53
2023-05-04T15:22:36.601Z,4.28
2023-05-04T15:25:04.617Z,4.88
2023-05-04T15:27:32.549Z,5.38
2023-05-04T15:30:00.468Z,4.97
2023-05-04T15:32:28.483Z,4.32
2023-05-04T15:35:04.662Z,5.25
2023-05-04T15:37:35.580Z,6.95
2023-05-04T15:40:04.724Z,4.93
2023-05-04T15:42:32.927Z,4.93
2023-05-04T15:45:00.726Z,4.55
2023-05-04T15:47:28.591Z,5.63
2023-05-04T15:49:56.410Z,5.45
2023-05-04T15:52:24.786Z,2.70
2023-05-04T15:54:53.897Z,4.10
2023-05-04T15:57:21.662Z,4.68
2023-05-04T15:59:49.950Z,4.07
2023-05-04T16:02:17.754Z,5.18
2023-05-04T16:04:45.617Z,5.07
2023-05-04T16:07:13.578Z,3.53
2023-05-04T16:09:41.351Z,5.18
2023-05-04T16:12:10.811Z,3.70
2023-05-04T16:14:38.623Z,4.32
2023-05-04T16:17:07.447Z,2.95
2023-05-04T16:19:35.421Z,4.75
2023-05-04T16:22:03.370Z,4.07
2023-05-04T16:24:31.426Z,4.45
2023-05-04T16:27:00.175Z,3.80
2023-05-04T16:29:29.291Z,4.20
2023-05-04T16:31:57.080Z,4.57
2023-05-04T16:34:24.794Z,4.15
2023-05-04T16:36:54.568Z,6.10
2023-05-04T16:39:22.351Z,4.35
2023-05-04T16:41:52.506Z,4.32
2023-05-04T16:44:20.443Z,3.38
2023-05-04T16:46:51.113Z,5.53
2023-05-04T16:49:19.008Z,3.08
2023-05-04T16:51:46.873Z,4.40
2023-05-04T16:54:15.189Z,4.00
2023-05-04T16:56:43.102Z,3.80
2023-05-04T16:59:11.391Z,6.25
2023-05-04T17:01:39.374Z,4.07
2023-05-04T17:04:09.178Z,4.82
2023-05-04T17:06:37.181Z,4.55
2023-05-04T17:09:05.320Z,4.88
2023-05-04T17:11:33.408Z,4.28
2023-05-04T17:14:01.441Z,5.65
2023-05-04T17:16:29.267Z,3.60
2023-05-04T17:18:57.204Z,6.47
2023-05-04T17:21:26.448Z,4.18
2023-05-04T17:23:54.201Z,6.53
2023-05-04T17:26:21.928Z,2.67
2023-05-04T17:28:49.813Z,3.20
2023-05-04T17:31:17.653Z,3.22
2023-05-04T17:33:46.261Z,4.88
2023-05-04T17:36:14.088Z,4.32
2023-05-04T17:38:43.219Z,4.18
2023-05-04T17:41:11.115Z,3.58
2023-05-04T17:43:39.173Z,3.50
2023-05-04T17:46:07.049Z,10.27
2023-05-04T17:48:36.342Z,3.50
2023-05-04T17:51:08.341Z,3.78
2023-05-04T17:53:36.673Z,4.50
2023-05-04T17:56:06.136Z,4.55
2023-05-04T17:58:34.117Z,4.03
2023-05-04T18:01:04.342Z,5.32
2023-05-04T18:03:32.561Z,3.50
2023-05-04T18:06:00.661Z,3.45
2023-05-04T18:08:28.434Z,3.38
2023-05-04T18:10:56.335Z,2.83
2023-05-04T18:13:25.683Z,5.90
2023-05-04T18:15:54.481Z,5.63
2023-05-04T18:18:22.322Z,3.42
2023-05-04T18:20:50.170Z,5.72
2023-05-04T18:23:17.919Z,3.97
2023-05-04T18:25:45.765Z,4.35
2023-05-04T18:28:13.720Z,4.10
2023-05-04T18:30:42.915Z,3.60
2023-05-04T18:33:10.706Z,4.20
2023-05-04T18:35:38.620Z,2.88
2023-05-04T18:38:06.429Z,2.85
2023-05-04T18:40:34.294Z,3.78
2023-05-04T18:43:02.192Z,4.43
2023-05-04T18:45:30.017Z,3.13
2023-05-04T18:48:01.425Z,2.75
2023-05-04T18:50:32.420Z,3.75
2023-05-04T18:53:00.319Z,4.82
2023-05-04T18:55:28.087Z,3.88
2023-05-04T18:57:55.907Z,4.55
2023-05-04T19:00:23.899Z,3.47
2023-05-04T19:02:51.813Z,4.07
2023-05-04T19:05:23.258Z,3.88
2023-05-04T19:07:51.111Z,4.72
2023-05-04T19:10:19.118Z,3.45
2023-05-04T19:12:47.314Z,3.35
2023-05-04T19:15:15.229Z,6.75
2023-05-04T19:17:43.017Z,3.97
2023-05-04T19:20:11.360Z,2.65
2023-05-04T19:22:40.483Z,3.60
2023-05-04T19:25:09.549Z,3.60
2023-05-04T19:27:37.980Z,2.85
2023-05-04T19:30:07.238Z,2.90
2023-05-04T19:32:35.286Z,3.45
2023-05-04T19:35:03.288Z,4.35
2023-05-04T19:37:31.113Z,4.00
2023-05-04T19:40:00.370Z,4.32
2023-05-04T19:42:28.415Z,3.90
2023-05-04T19:44:56.300Z,4.60
2023-05-04T19:47:24.335Z,3.97
2023-05-04T19:49:52.362Z,5.80
2023-05-04T19:52:20.218Z,3.80
2023-05-04T19:54:53.674Z,3.70
2023-05-04T19:57:23.240Z,4.60
2023-05-04T19:59:51.101Z,4.28
2023-05-04T20:02:18.942Z,3.80
2023-05-04T20:04:46.722Z,5.07
2023-05-04T20:07:14.609Z,3.40
2023-05-04T20:09:42.399Z,3.33
2023-05-04T20:12:10.812Z,3.10
2023-05-04T20:14:41.159Z,3.13
2023-05-04T20:17:09.140Z,4.45
2023-05-04T20:19:37.590Z,5.60
2023-05-04T20:22:05.568Z,4.35
2023-05-04T20:24:33.419Z,6.78
2023-05-04T20:27:01.286Z,4.50
2023-05-04T20:29:29.202Z,5.38
2023-05-04T20:31:58.596Z,6.43
2023-05-04T20:34:28.986Z,11.20
2023-05-04T20:36:56.835Z,5.80
2023-05-04T20:39:24.704Z,4.93
2023-05-04T20:41:52.970Z,4.07
2023-05-04T20:44:20.772Z,5.18
2023-05-04T20:46:48.660Z,4.53
2023-05-04T20:49:20.965Z,3.80
2023-05-04T20:51:51.076Z,5.70
2023-05-04T20:54:18.891Z,6.22
2023-05-04T20:56:46.712Z,6.72
2023-05-04T20:59:14.454Z,5.68
2023-05-04T21:01:42.354Z,6.32
2023-05-04T21:04:10.531Z,7.80
2023-05-04T21:06:39.711Z,5.38
2023-05-04T21:09:07.854Z,6.53
2023-05-04T21:11:35.716Z,5.20
2023-05-04T21:14:03.520Z,5.93
2023-05-04T21:16:31.722Z,5.18
2023-05-04T21:18:59.614Z,7.13
2023-05-04T21:21:27.431Z,5.50
2023-05-04T21:23:56.731Z,7.60
2023-05-04T21:26:26.794Z,8.85
2023-05-04T21:28:54.625Z,6.07
2023-05-04T21:31:22.331Z,6.10
2023-05-04T21:33:52.241Z,8.25
2023-05-04T21:36:20.194Z,4.93
2023-05-04T21:38:47.958Z,4.75
2023-05-04T21:41:18.054Z,3.75
2023-05-04T21:43:45.874Z,4.10
2023-05-04T21:46:14.462Z,3.65
2023-05-04T21:48:42.489Z,3.58
2023-05-04T21:51:10.393Z,3.78
2023-05-04T21:53:40.340Z,5.78
2023-05-04T21:56:09.966Z,4.45
2023-05-04T21:58:40.326Z,4.63
2023-05-04T22:01:08.692Z,6.50
2023-05-04T22:03:36.964Z,4.75
2023-05-04T22:06:05.449Z,5.30
2023-05-04T22:08:33.226Z,3.78
2023-05-04T22:11:01.110Z,5.18
2023-05-04T22:13:29.074Z,8.90
2023-05-04T22:15:58.288Z,9.35
2023-05-04T22:18:26.149Z,6.78
2023-05-04T22:20:54.073Z,6.85
2023-05-04T22:23:21.852Z,7.13
2023-05-04T22:25:49.744Z,7.93
2023-05-04T22:28:18.003Z,8.40
2023-05-04T22:30:45.941Z,10.05
2023-05-04T22:33:15.533Z,7.82
2023-05-04T22:35:43.842Z,9.23
2023-05-04T22:38:11.944Z,7.55
2023-05-04T22:40:40.554Z,6.60
2023-05-04T22:43:08.584Z,8.35
2023-05-04T22:45:36.731Z,5.90
2023-05-04T22:48:04.834Z,5.10
2023-05-04T22:50:34.302Z,6.82
2023-05-04T22:53:02.227Z,5.00
2023-05-04T22:55:30.296Z,6.05
2023-05-04T22:57:58.113Z,6.30
2023-05-04T23:00:26.078Z,5.30
2023-05-04T23:02:54.054Z,7.30
2023-05-04T23:05:24.116Z,5.90
2023-05-04T23:07:53.384Z,7.38
2023-05-04T23:10:21.672Z,6.13
2023-05-04T23:12:51.550Z,7.78
2023-05-04T23:15:19.342Z,8.80
2023-05-04T23:17:47.435Z,4.75
2023-05-04T23:20:16.704Z,7.13
2023-05-04T23:22:44.499Z,9.52
2023-05-04T23:25:13.618Z,8.40
2023-05-04T23:27:41.730Z,7.55
2023-05-04T23:30:10.551Z,8.18
2023-05-04T23:32:38.382Z,5.50
2023-05-04T23:35:07.700Z,6.45
2023-05-04T23:37:35.471Z,6.30
2023-05-04T23:40:03.471Z,7.55
2023-05-04T23:42:32.609Z,6.57
2023-05-04T23:45:00.365Z,5.72
2023-05-04T23:47:28.209Z,5.05
2023-05-04T23:49:58.544Z,6.95
2023-05-04T23:52:26.457Z,6.40
2023-05-04T23:54:54.783Z,6.65
2023-05-04T23:57:22.640Z,5.55
2023-05-04T23:59:53.363Z,6.70
